Terminal Aerodrome Forecast
Issued by NWS Wichita, KS

Home | Current Version | Previous Version | Graphics & Text | Print | Product List | Glossary On
Versions: 1 2 3 4 5 6 7 8 9 10 11 12 13 14 15 16 17 18 19 20
000
FTUS43 KICT 170528
TAFICT
TAF
KICT 170528Z 1706/1806 15009KT P6SM OVC150
     FM171100 19010KT P6SM BKN025
     FM171400 23010KT P6SM SCT080
     FM171700 29014G24KT P6SM FEW250
     FM172300 34010KT P6SM SKC
     FM180200 03006KT P6SM SKC=

USA.gov is the U.S. government's official web portal to all federal, state and local government web resources and services.